createdAt,value
2022-09-03T00:02:28.103Z,15.70
2022-09-03T00:05:34.980Z,15.60
2022-09-03T00:08:23.325Z,15.60
2022-09-03T00:10:57.724Z,15.50
2022-09-03T00:13:39.524Z,15.60
2022-09-03T00:16:11.140Z,15.50
2022-09-03T00:18:50.051Z,15.50
2022-09-03T00:21:27.611Z,15.40
2022-09-03T00:23:54.442Z,15.40
2022-09-03T00:26:27.498Z,15.40
2022-09-03T00:29:13.982Z,15.30
2022-09-03T00:31:47.722Z,15.30
2022-09-03T00:34:32.724Z,15.30
2022-09-03T00:36:59.532Z,15.40
2022-09-03T00:39:27.475Z,15.30
2022-09-03T00:42:17.611Z,15.30
2022-09-03T00:45:00.381Z,15.30
2022-09-03T00:47:32.849Z,15.20
2022-09-03T00:50:07.853Z,15.20
2022-09-03T00:52:52.530Z,15.20
2022-09-03T00:55:42.031Z,15.20
2022-09-03T00:58:17.954Z,15.10
2022-09-03T01:00:45.649Z,15.00
2022-09-03T01:03:33.582Z,15.00
2022-09-03T01:06:07.968Z,15.00
2022-09-03T01:08:39.264Z,15.00
2022-09-03T01:11:40.412Z,15.00
2022-09-03T01:14:42.092Z,14.90
2022-09-03T01:17:30.633Z,14.90
2022-09-03T01:20:15.384Z,14.80
2022-09-03T01:22:45.319Z,14.70
2022-09-03T01:25:19.008Z,14.80
2022-09-03T01:28:23.435Z,14.80
2022-09-03T01:30:57.386Z,14.80
2022-09-03T01:33:47.718Z,14.70
2022-09-03T01:36:21.168Z,14.70
2022-09-03T01:38:47.921Z,14.70
2022-09-03T01:41:48.481Z,14.60
2022-09-03T01:44:24.184Z,14.60
2022-09-03T01:47:13.286Z,14.50
2022-09-03T01:50:08.234Z,14.50
2022-09-03T01:52:54.840Z,14.40
2022-09-03T01:55:37.576Z,14.40
2022-09-03T01:58:16.338Z,14.40
2022-09-03T02:00:46.126Z,14.40
2022-09-03T02:03:12.876Z,14.30
2022-09-03T02:05:39.637Z,14.30
2022-09-03T02:08:07.824Z,14.30
2022-09-03T02:10:41.007Z,14.20
2022-09-03T02:13:38.524Z,14.20
2022-09-03T02:16:16.731Z,14.10
2022-09-03T02:18:46.599Z,14.10
2022-09-03T02:21:20.281Z,14.10
2022-09-03T02:23:49.762Z,14.00
2022-09-03T02:26:19.071Z,14.00
2022-09-03T02:28:48.000Z,14.00
2022-09-03T02:31:17.350Z,14.00
2022-09-03T02:33:47.521Z,13.90
2022-09-03T02:36:15.576Z,13.90
2022-09-03T02:38:43.460Z,13.80
2022-09-03T02:41:13.267Z,13.80
2022-09-03T02:43:45.708Z,13.80
2022-09-03T02:46:22.435Z,13.80
2022-09-03T02:48:49.226Z,13.70
2022-09-03T02:51:16.343Z,13.70
2022-09-03T02:53:43.799Z,13.70
2022-09-03T02:56:10.604Z,13.60
2022-09-03T02:58:39.907Z,13.60
2022-09-03T03:01:06.708Z,13.60
2022-09-03T03:03:35.709Z,13.60
2022-09-03T03:06:03.437Z,13.50
2022-09-03T03:08:30.439Z,13.50
2022-09-03T03:10:58.876Z,13.50
2022-09-03T03:13:31.407Z,13.50
2022-09-03T03:16:02.406Z,13.40
2022-09-03T03:18:31.578Z,13.60
2022-09-03T03:20:58.349Z,13.50
2022-09-03T03:23:27.334Z,13.40
2022-09-03T03:25:54.080Z,13.30
2022-09-03T03:28:21.388Z,13.40
2022-09-03T03:30:49.075Z,13.40
2022-09-03T03:33:16.989Z,13.30
2022-09-03T03:35:43.777Z,13.30
2022-09-03T03:38:10.647Z,13.30
2022-09-03T03:40:39.047Z,13.20
2022-09-03T03:43:06.247Z,13.10
2022-09-03T03:45:33.468Z,13.10
2022-09-03T03:48:00.272Z,13.10
2022-09-03T03:50:28.115Z,13.10
2022-09-03T03:52:54.936Z,13.10
2022-09-03T03:55:21.712Z,13.10
2022-09-03T03:57:51.092Z,13.10
2022-09-03T04:00:25.484Z,13.10
2022-09-03T04:02:54.512Z,13.10
2022-09-03T04:05:22.997Z,13.10
2022-09-03T04:07:50.018Z,13.10
2022-09-03T04:10:16.848Z,13.00
2022-09-03T04:12:43.574Z,13.00
2022-09-03T04:15:15.079Z,13.00
2022-09-03T04:17:41.918Z,13.00
2022-09-03T04:20:11.966Z,12.90
2022-09-03T04:22:38.811Z,12.90
2022-09-03T04:25:06.001Z,13.00
2022-09-03T04:27:32.804Z,12.90
2022-09-03T04:30:01.935Z,12.90
2022-09-03T04:32:49.362Z,12.80
2022-09-03T04:35:23.133Z,12.90
2022-09-03T04:37:49.958Z,12.90
2022-09-03T04:40:16.902Z,12.90
2022-09-03T04:42:45.944Z,13.00
2022-09-03T04:45:15.970Z,12.90
2022-09-03T04:47:42.717Z,13.00
2022-09-03T04:50:12.817Z,13.00
2022-09-03T04:52:41.917Z,12.90
2022-09-03T04:55:11.564Z,12.90
2022-09-03T04:57:43.039Z,12.90
2022-09-03T05:00:13.456Z,13.00
2022-09-03T05:02:40.707Z,12.90
2022-09-03T05:05:08.019Z,12.90
2022-09-03T05:07:38.848Z,12.90
2022-09-03T05:10:09.504Z,13.10
2022-09-03T05:12:36.618Z,13.00
2022-09-03T05:15:05.794Z,13.00
2022-09-03T05:17:36.042Z,13.20
2022-09-03T05:20:04.996Z,13.20
2022-09-03T05:22:34.434Z,13.40
2022-09-03T05:25:01.222Z,14.00
2022-09-03T05:27:30.110Z,14.50
2022-09-03T05:29:56.868Z,14.70
2022-09-03T05:32:25.450Z,14.60
2022-09-03T05:34:54.472Z,14.50
2022-09-03T05:37:21.226Z,14.50
2022-09-03T05:39:48.105Z,14.50
2022-09-03T05:42:15.276Z,14.70
2022-09-03T05:44:42.364Z,15.00
2022-09-03T05:47:09.120Z,15.00
2022-09-03T05:49:38.026Z,15.20
2022-09-03T05:52:07.024Z,15.30
2022-09-03T05:54:35.830Z,15.50
2022-09-03T05:57:05.371Z,15.80
2022-09-03T05:59:32.099Z,15.90
2022-09-03T06:02:00.366Z,16.10
2022-09-03T06:04:27.430Z,16.00
2022-09-03T06:06:54.573Z,15.90
2022-09-03T06:09:23.175Z,15.80
2022-09-03T06:11:53.977Z,15.60
2022-09-03T06:14:21.037Z,15.60
2022-09-03T06:16:52.962Z,15.60
2022-09-03T06:19:20.361Z,15.60
2022-09-03T06:21:49.811Z,15.60
2022-09-03T06:24:28.143Z,15.60
2022-09-03T06:26:58.094Z,15.60
2022-09-03T06:29:24.920Z,15.60
2022-09-03T06:31:51.756Z,15.60
2022-09-03T06:34:18.863Z,15.60
2022-09-03T06:36:50.569Z,15.60
2022-09-03T06:39:19.656Z,15.70
2022-09-03T06:41:48.335Z,15.90
2022-09-03T06:44:15.271Z,15.80
2022-09-03T06:46:46.082Z,15.80
2022-09-03T06:49:13.034Z,15.80
2022-09-03T06:51:44.149Z,15.90
2022-09-03T06:54:15.886Z,15.90
2022-09-03T06:56:45.229Z,16.00
2022-09-03T06:59:14.551Z,16.00
2022-09-03T07:01:44.027Z,16.20
2022-09-03T07:04:13.570Z,16.20
2022-09-03T07:06:43.212Z,16.30
2022-09-03T07:09:11.039Z,16.30
2022-09-03T07:11:39.253Z,16.40
2022-09-03T07:14:06.009Z,16.40
2022-09-03T07:16:34.656Z,16.40
2022-09-03T07:19:03.588Z,16.40
2022-09-03T07:21:31.381Z,16.40
2022-09-03T07:24:00.732Z,16.50
2022-09-03T07:26:33.209Z,16.60
2022-09-03T07:29:02.501Z,16.70
2022-09-03T07:31:37.164Z,16.80
2022-09-03T07:34:09.930Z,16.90
2022-09-03T07:36:51.168Z,16.90
2022-09-03T07:39:18.451Z,17.00
2022-09-03T07:41:48.892Z,17.10
2022-09-03T07:44:22.894Z,17.10
2022-09-03T07:46:51.377Z,17.20
2022-09-03T07:49:21.944Z,17.30
2022-09-03T07:51:50.914Z,17.40
2022-09-03T07:54:17.723Z,17.40
2022-09-03T07:56:44.485Z,17.40
2022-09-03T07:59:12.120Z,17.50
2022-09-03T08:01:41.342Z,17.60
2022-09-03T08:04:09.795Z,17.70
2022-09-03T08:06:42.315Z,17.70
2022-09-03T08:09:13.729Z,17.80
2022-09-03T08:11:43.834Z,17.90
2022-09-03T08:14:12.244Z,17.90
2022-09-03T08:16:41.995Z,18.00
2022-09-03T08:19:08.967Z,18.00
2022-09-03T08:21:42.190Z,18.10
2022-09-03T08:24:09.426Z,18.10
2022-09-03T08:26:40.500Z,18.20
2022-09-03T08:29:09.467Z,18.20
2022-09-03T08:31:36.823Z,18.30
2022-09-03T08:34:06.936Z,18.30
2022-09-03T08:36:38.116Z,18.40
2022-09-03T08:39:09.916Z,18.40
2022-09-03T08:42:01.938Z,18.50
2022-09-03T08:44:50.647Z,18.50
2022-09-03T08:47:38.768Z,18.50
2022-09-03T08:50:19.468Z,18.60
2022-09-03T08:53:02.057Z,18.60
2022-09-03T08:55:36.437Z,18.70
2022-09-03T08:58:08.508Z,18.70
2022-09-03T09:00:47.415Z,18.70
2022-09-03T09:03:26.102Z,18.80
2022-09-03T09:06:07.314Z,18.80
2022-09-03T09:08:46.005Z,18.80
2022-09-03T09:11:40.834Z,18.80
2022-09-03T09:14:29.715Z,18.90
2022-09-03T09:17:05.657Z,19.00
2022-09-03T09:19:50.951Z,19.10
2022-09-03T09:22:45.299Z,19.00
2022-09-03T09:25:19.383Z,19.10
2022-09-03T09:27:57.991Z,19.10
2022-09-03T09:30:26.840Z,19.20
2022-09-03T09:32:53.595Z,19.30
2022-09-03T09:35:22.606Z,19.40
2022-09-03T09:37:54.744Z,19.40
2022-09-03T09:40:44.891Z,19.50
2022-09-03T09:43:21.032Z,19.60
2022-09-03T09:45:52.402Z,19.50
2022-09-03T09:48:31.499Z,19.60
2022-09-03T09:51:06.864Z,19.70
2022-09-03T09:53:36.314Z,19.70
2022-09-03T09:56:05.764Z,19.80
2022-09-03T09:58:35.557Z,19.90
2022-09-03T10:01:13.467Z,19.80
2022-09-03T10:03:57.446Z,19.80
2022-09-03T10:06:43.855Z,19.80
2022-09-03T10:09:23.362Z,19.80
2022-09-03T10:12:07.161Z,19.70
2022-09-03T10:14:42.945Z,19.80
2022-09-03T10:17:24.952Z,19.80
2022-09-03T10:20:31.325Z,19.90
2022-09-03T10:22:58.087Z,20.10
2022-09-03T10:25:35.916Z,20.20
2022-09-03T10:28:03.355Z,20.30
2022-09-03T10:30:30.223Z,20.50
2022-09-03T10:33:09.150Z,20.60
2022-09-03T10:35:46.289Z,20.80
2022-09-03T10:38:38.120Z,21.00
2022-09-03T10:41:19.435Z,21.10
2022-09-03T10:44:16.260Z,21.30
2022-09-03T10:47:11.569Z,21.40
2022-09-03T10:50:16.715Z,21.50
2022-09-03T10:53:14.904Z,21.60
2022-09-03T10:55:50.379Z,21.80
2022-09-03T10:59:07.469Z,21.90
2022-09-03T11:01:46.313Z,22.10
2022-09-03T11:04:40.168Z,22.20
2022-09-03T11:07:12.580Z,22.30
2022-09-03T11:09:46.930Z,22.30
2022-09-03T11:12:21.883Z,22.40
2022-09-03T11:14:56.535Z,22.50
2022-09-03T11:17:35.561Z,22.60
2022-09-03T11:20:22.706Z,22.70
2022-09-03T11:22:51.690Z,22.90
2022-09-03T11:25:20.322Z,23.00
2022-09-03T11:27:58.467Z,23.00
2022-09-03T11:30:33.737Z,23.10
2022-09-03T11:33:05.860Z,23.20
2022-09-03T11:35:32.578Z,23.30
2022-09-03T11:38:00.003Z,23.40
2022-09-03T11:40:33.620Z,23.40
2022-09-03T11:43:27.944Z,23.50
2022-09-03T11:46:12.758Z,23.50
2022-09-03T11:48:46.854Z,23.40
2022-09-03T11:51:37.663Z,23.40
2022-09-03T11:54:20.996Z,23.30
2022-09-03T11:56:50.547Z,23.30
2022-09-03T11:59:24.732Z,23.30
2022-09-03T12:02:06.307Z,23.30
2022-09-03T12:05:03.416Z,23.30
2022-09-03T12:08:28.336Z,23.20
2022-09-03T12:11:22.934Z,23.10
2022-09-03T12:14:13.883Z,23.10
2022-09-03T12:16:43.850Z,23.10
2022-09-03T12:19:57.644Z,23.10
2022-09-03T12:22:28.839Z,23.10
2022-09-03T12:25:07.446Z,23.10
2022-09-03T12:27:40.446Z,23.00
2022-09-03T12:30:30.329Z,23.00
2022-09-03T12:33:11.074Z,23.00
2022-09-03T12:38:25.958Z,22.90
2022-09-03T12:43:41.199Z,22.70
2022-09-03T12:46:14.724Z,22.70
2022-09-03T12:49:30.075Z,22.60
2022-09-03T12:51:52.542Z,22.70
2022-09-03T12:54:23.884Z,22.70
2022-09-03T12:56:55.208Z,22.70
2022-09-03T12:59:21.954Z,22.70
2022-09-03T13:01:50.825Z,22.70
2022-09-03T13:04:38.400Z,22.60
2022-09-03T13:07:33.592Z,22.60
2022-09-03T13:10:07.843Z,22.60
2022-09-03T13:12:42.468Z,22.60
2022-09-03T13:15:19.910Z,22.60
2022-09-03T13:18:19.888Z,22.60
2022-09-03T13:20:55.376Z,22.70
2022-09-03T13:23:34.482Z,22.70
2022-09-03T13:26:28.775Z,22.70
2022-09-03T13:29:06.982Z,22.80
2022-09-03T13:31:42.794Z,22.90
2022-09-03T13:34:18.496Z,22.90
2022-09-03T13:36:54.182Z,23.00
2022-09-03T13:39:28.957Z,23.00
2022-09-03T13:42:12.038Z,23.10
2022-09-03T13:45:16.048Z,23.20
2022-09-03T13:48:11.286Z,23.20
2022-09-03T13:50:42.618Z,23.30
2022-09-03T13:53:22.809Z,23.40
2022-09-03T13:55:57.181Z,23.50
2022-09-03T13:58:30.175Z,23.50
2022-09-03T14:01:01.307Z,23.50
2022-09-03T14:03:48.936Z,23.40
2022-09-03T14:06:34.774Z,23.30
2022-09-03T14:09:09.250Z,23.30
2022-09-03T14:12:14.715Z,23.30
2022-09-03T14:15:00.159Z,23.20
2022-09-03T14:17:43.075Z,23.10
2022-09-03T14:20:12.626Z,23.10
2022-09-03T14:22:51.168Z,22.90
2022-09-03T14:25:22.004Z,22.80
2022-09-03T14:27:52.120Z,22.80
2022-09-03T14:30:18.815Z,22.60
2022-09-03T14:33:11.514Z,22.50
2022-09-03T14:35:38.285Z,22.40
2022-09-03T14:38:14.031Z,22.40
2022-09-03T14:40:52.413Z,22.30
2022-09-03T14:43:34.946Z,22.30
2022-09-03T14:46:13.384Z,22.20
2022-09-03T14:48:46.294Z,22.10
2022-09-03T14:51:31.878Z,22.10
2022-09-03T14:54:04.508Z,22.10
2022-09-03T14:56:58.119Z,22.00
2022-09-03T14:59:28.868Z,22.00
2022-09-03T15:02:36.657Z,21.90
2022-09-03T15:05:12.607Z,21.80
2022-09-03T15:07:57.383Z,21.90
2022-09-03T15:10:28.338Z,21.80
2022-09-03T15:12:59.737Z,21.80
2022-09-03T15:15:34.104Z,21.70
2022-09-03T15:18:09.673Z,21.70
2022-09-03T15:21:01.616Z,21.70
2022-09-03T15:23:48.652Z,21.70
2022-09-03T15:26:43.293Z,21.60
2022-09-03T15:29:26.313Z,21.70
2022-09-03T15:32:13.995Z,21.60
2022-09-03T15:34:46.801Z,21.60
2022-09-03T15:37:33.431Z,21.60
2022-09-03T15:40:28.604Z,21.60
2022-09-03T15:43:23.283Z,21.50
2022-09-03T15:45:56.779Z,21.50
2022-09-03T15:48:40.229Z,21.50
2022-09-03T15:51:15.257Z,21.50
2022-09-03T15:53:55.037Z,21.40
2022-09-03T15:56:29.194Z,21.40
2022-09-03T15:59:18.282Z,21.40
2022-09-03T16:01:58.736Z,21.40
2022-09-03T16:05:06.221Z,21.40
2022-09-03T16:07:54.349Z,21.30
2022-09-03T16:10:24.774Z,21.30
2022-09-03T16:13:14.652Z,21.20
2022-09-03T16:15:50.133Z,21.20
2022-09-03T16:18:37.584Z,21.20
2022-09-03T16:21:47.559Z,21.10
2022-09-03T16:24:18.440Z,21.10
2022-09-03T16:26:53.787Z,21.10
2022-09-03T16:29:26.372Z,21.10
2022-09-03T16:32:05.137Z,21.10
2022-09-03T16:34:45.126Z,21.00
2022-09-03T16:37:46.038Z,21.00
2022-09-03T16:40:26.053Z,21.00
2022-09-03T16:43:23.577Z,21.00
2022-09-03T16:46:15.033Z,20.90
2022-09-03T16:49:09.658Z,20.90
2022-09-03T16:51:56.539Z,20.80
2022-09-03T16:55:04.345Z,20.80
2022-09-03T16:58:04.911Z,20.80
2022-09-03T17:00:59.520Z,20.80
2022-09-03T17:03:43.764Z,20.70
2022-09-03T17:06:35.535Z,20.70
2022-09-03T17:09:17.644Z,20.60
2022-09-03T17:12:12.098Z,20.60
2022-09-03T17:14:41.928Z,20.60
2022-09-03T17:17:08.689Z,20.50
2022-09-03T17:19:35.524Z,20.50
2022-09-03T17:22:11.424Z,20.40
2022-09-03T17:24:51.016Z,20.40
2022-09-03T17:27:37.002Z,20.40
2022-09-03T17:30:18.825Z,20.40
2022-09-03T17:33:14.695Z,20.30
2022-09-03T17:36:03.348Z,20.30
2022-09-03T17:38:48.995Z,20.20
2022-09-03T17:41:19.512Z,20.20
2022-09-03T17:43:54.088Z,20.20
2022-09-03T17:46:45.727Z,20.10
2022-09-03T17:49:52.396Z,20.10
2022-09-03T17:52:27.324Z,20.00
2022-09-03T17:54:57.009Z,20.00
2022-09-03T17:57:33.120Z,20.00
2022-09-03T18:00:03.361Z,19.90
2022-09-03T18:02:36.157Z,19.90
2022-09-03T18:05:21.904Z,19.90
2022-09-03T18:08:19.109Z,19.80
2022-09-03T18:10:51.622Z,19.80
2022-09-03T18:13:47.446Z,19.80
2022-09-03T18:16:40.199Z,19.80
2022-09-03T18:19:18.323Z,19.80
2022-09-03T18:22:04.752Z,19.70
2022-09-03T18:24:53.113Z,19.70
2022-09-03T18:27:48.455Z,19.70
2022-09-03T18:30:36.135Z,19.60
2022-09-03T18:33:21.497Z,19.60
2022-09-03T18:36:09.318Z,19.60
2022-09-03T18:38:56.255Z,19.50
2022-09-03T18:41:56.823Z,19.50
2022-09-03T18:44:48.577Z,19.50
2022-09-03T18:48:02.187Z,19.40
2022-09-03T18:51:05.347Z,19.40
2022-09-03T18:54:08.749Z,19.30
2022-09-03T18:56:59.409Z,19.20
2022-09-03T19:00:18.965Z,19.20
2022-09-03T19:03:19.620Z,19.20
2022-09-03T19:06:28.272Z,19.20
2022-09-03T19:09:28.147Z,19.20
2022-09-03T19:12:32.513Z,19.20
2022-09-03T19:15:38.735Z,19.20
2022-09-03T19:18:26.971Z,19.10
2022-09-03T19:21:15.477Z,19.10
2022-09-03T19:24:02.983Z,19.10
2022-09-03T19:27:47.445Z,19.10
2022-09-03T19:30:35.644Z,19.00
2022-09-03T19:33:39.797Z,18.90
2022-09-03T19:36:37.354Z,18.90
2022-09-03T19:39:29.657Z,18.90
2022-09-03T19:42:24.466Z,18.80
2022-09-03T19:45:38.875Z,18.80
2022-09-03T19:48:52.803Z,18.80
2022-09-03T19:52:05.843Z,18.70
2022-09-03T19:54:51.409Z,18.70
2022-09-03T19:57:36.525Z,18.60
2022-09-03T20:00:29.478Z,18.60
2022-09-03T20:03:20.628Z,18.50
2022-09-03T20:06:11.268Z,18.50
2022-09-03T20:08:56.710Z,18.50
2022-09-03T20:11:28.197Z,18.50
2022-09-03T20:14:13.381Z,18.50
2022-09-03T20:16:59.435Z,18.40
2022-09-03T20:20:04.895Z,18.40
2022-09-03T20:22:52.306Z,18.30
2022-09-03T20:25:30.367Z,18.30
2022-09-03T20:28:53.748Z,18.20
2022-09-03T20:31:48.773Z,18.20
2022-09-03T20:34:33.323Z,18.20
2022-09-03T20:37:11.810Z,18.10
2022-09-03T20:39:44.847Z,18.10
2022-09-03T20:42:36.303Z,18.00
2022-09-03T20:45:15.591Z,18.00
2022-09-03T20:48:04.442Z,18.00
2022-09-03T20:50:46.682Z,18.00
2022-09-03T20:53:43.537Z,18.00
2022-09-03T20:56:19.476Z,18.00
2022-09-03T20:59:01.622Z,18.00
2022-09-03T21:01:57.620Z,18.00
2022-09-03T21:04:33.344Z,18.00
2022-09-03T21:07:02.753Z,17.90
2022-09-03T21:09:41.275Z,17.90
2022-09-03T21:12:27.395Z,17.80
2022-09-03T21:15:12.943Z,17.70
2022-09-03T21:17:56.034Z,17.70
2022-09-03T21:20:32.122Z,17.70
2022-09-03T21:23:23.075Z,17.70
2022-09-03T21:25:58.529Z,17.60
2022-09-03T21:29:01.312Z,17.60
2022-09-03T21:31:48.443Z,17.60
2022-09-03T21:34:26.077Z,17.60
2022-09-03T21:36:52.830Z,17.60
2022-09-03T21:39:26.591Z,17.50
2022-09-03T21:42:17.703Z,17.50
2022-09-03T21:44:49.104Z,17.50
2022-09-03T21:47:21.334Z,17.50
2022-09-03T21:49:57.351Z,17.50
2022-09-03T21:52:30.367Z,17.50
2022-09-03T21:54:57.112Z,17.50
2022-09-03T21:57:50.128Z,17.50
2022-09-03T22:00:19.785Z,17.40
2022-09-03T22:02:49.329Z,17.40
2022-09-03T22:05:16.624Z,17.40
2022-09-03T22:07:53.637Z,17.30
2022-09-03T22:10:34.793Z,17.30
2022-09-03T22:13:23.224Z,17.30
2022-09-03T22:15:53.081Z,17.20
2022-09-03T22:18:28.537Z,17.20
2022-09-03T22:21:13.279Z,17.10
2022-09-03T22:24:07.528Z,17.20
2022-09-03T22:26:55.935Z,17.20
2022-09-03T22:29:46.957Z,17.10
2022-09-03T22:32:44.293Z,17.10
2022-09-03T22:35:23.448Z,17.10
2022-09-03T22:38:05.082Z,17.00
2022-09-03T22:40:44.098Z,17.00
2022-09-03T22:43:35.224Z,17.00
2022-09-03T22:46:15.332Z,16.90
2022-09-03T22:49:27.578Z,16.90
2022-09-03T22:52:08.546Z,16.80
2022-09-03T22:54:53.257Z,16.70
2022-09-03T22:57:20.180Z,16.60
2022-09-03T23:00:11.224Z,16.60
2022-09-03T23:02:38.293Z,16.50
2022-09-03T23:05:27.841Z,16.40
2022-09-03T23:07:55.760Z,16.30
2022-09-03T23:10:34.373Z,16.50
2022-09-03T23:13:46.827Z,16.40
2022-09-03T23:16:21.667Z,16.30
2022-09-03T23:18:48.482Z,16.30
2022-09-03T23:21:27.317Z,16.20
2022-09-03T23:24:02.556Z,16.20
2022-09-03T23:26:38.755Z,16.10
2022-09-03T23:29:18.941Z,16.10
2022-09-03T23:31:48.584Z,16.10
2022-09-03T23:34:17.441Z,16.10
2022-09-03T23:37:32.386Z,16.10
2022-09-03T23:40:19.261Z,16.20
2022-09-03T23:42:55.151Z,16.00
2022-09-03T23:45:34.365Z,16.00
2022-09-03T23:48:16.285Z,16.00
2022-09-03T23:51:22.705Z,15.90
2022-09-03T23:53:52.320Z,15.90
2022-09-03T23:56:47.718Z,15.90
2022-09-03T23:59:28.747Z,15.80
